Airfield :







YOU CAN JOIN US ON...

 
LOGIN :

Register | Disclaimer

   EN    FR    IT 

 









Legend :    VFR   Marginal VFR   IFR   Intensive IFR   Very Intensive IFR
Visi :
Ceiling :
>= 8 km
>= 3000ft
5 to 8 km
1000 to 3000 ft
1500m to 5 km
500 to 1000 ft
800 to 1500m
200 to 500 ft
< 800m
< 200 ft
Symbols :   Thunderstorms  Fog  Heavy snow  Heavy precipitations  Wind > 20 kt






- Airport Elevation : 29 ft
- IATA code : CUR


TNCC - Willemstad/Hato Int.

CURRENT METAR :
  • 211900Z 10012KT 9999 FEW024 29/22 Q1010 NOSIG

EXPIRED METARs :
  • 211800Z 11016KT 9999 FEW023 30/21 Q1011 NOSIG
  • 211710Z 12018G28KT 9999 FEW023 30/21 Q1012 NOSIG
  • 211700Z 11016KT 9999 FEW023 29/21 Q1012 NOSIG

TAF TAF TNCC
Valid from the 21 at 12:00 until the 22 at 12:00 UTC


211115Z 2112/2212 11015KT 9999 SCT020
TEMPO 2112/2116 BKN014



MET'MAP, your aeronautical weather chart ! - Copyright ORBIFLY December 2007 - Disclaimer

ORBIFLY MET'MAP TEAM :

Programming & Development : Alexandra Zaïnal
Concept & original design : Baudouin d'Aumeries
Assistance for programming : Marc-Olivier Méhu
Technical & hardware support : Manuel Goepfert

Contact : metmap@orbifly.com




SOURCES & CREDITS :

   NOAA